Time;durP1;ratioP1;P1;durP2;ratioP2;P2;SDS_P1;SDS_P2;PMS_P1;PMS_P2;Temp;Humidity;BMP_temperature;BMP_pressure;BME280_temperature;BME280_humidity;BME280_pressure;Samples;Min_cycle;Max_cycle;Signal;HPM_P1;HPM_P2
2022/10/31 00:02:09;;;;;;;27.55;9.77;;;;;;;;;;5144737;27;20066;-79
2022/10/31 00:04:35;;;;;;;17.13;9.15;;;;;;;;;;5147195;27;20043;-79
2022/10/31 00:07:01;;;;;;;18.50;9.75;;;;;;;;;;5129727;27;20043;-79
2022/10/31 00:09:28;;;;;;;18.45;8.82;;;;;;;;;;5129757;27;20059;-78
2022/10/31 00:11:54;;;;;;;19.13;9.02;;;;;;;;;;5143831;27;20489;-78
2022/10/31 00:14:21;;;;;;;17.27;9.88;;;;;;;;;;5127510;27;20061;-78
2022/10/31 00:16:47;;;;;;;20.05;10.25;;;;;;;;;;5147208;27;20071;-78
2022/10/31 00:19:13;;;;;;;20.25;10.10;;;;;;;;;;5129544;27;20872;-77
2022/10/31 00:21:40;;;;;;;19.05;9.70;;;;;;;;;;5127195;27;20047;-80
2022/10/31 00:24:06;;;;;;;21.85;10.70;;;;;;;;;;5148460;27;20509;-80
2022/10/31 00:26:32;;;;;;;22.92;11.02;;;;;;;;;;5142822;27;20120;-78
2022/10/31 00:28:59;;;;;;;20.02;9.68;;;;;;;;;;5114566;27;20051;-78
2022/10/31 00:31:25;;;;;;;20.27;10.05;;;;;;;;;;5121072;27;20055;-78
2022/10/31 00:33:51;;;;;;;17.15;10.50;;;;;;;;;;5109472;27;20048;-77
2022/10/31 00:36:18;;;;;;;15.88;9.60;;;;;;;;;;5138103;27;20059;-78
2022/10/31 00:38:45;;;;;;;21.63;11.10;;;;;;;;;;5130213;27;20063;-78
2022/10/31 00:41:12;;;;;;;20.85;9.68;;;;;;;;;;5126347;27;20112;-78
2022/10/31 00:43:39;;;;;;;18.25;9.15;;;;;;;;;;5144940;27;20888;-78
2022/10/31 00:46:05;;;;;;;21.17;9.52;;;;;;;;;;5146046;27;20047;-78
2022/10/31 00:48:31;;;;;;;19.50;9.75;;;;;;;;;;5126951;27;20065;-79
2022/10/31 00:50:57;;;;;;;17.83;8.98;;;;;;;;;;5147256;27;20051;-79
2022/10/31 00:53:24;;;;;;;18.35;9.63;;;;;;;;;;5127441;27;20077;-78
2022/10/31 00:55:50;;;;;;;18.77;9.43;;;;;;;;;;5148520;27;20051;-80
2022/10/31 00:58:16;;;;;;;20.42;10.43;;;;;;;;;;5128022;27;20079;-77
2022/10/31 01:00:43;;;;;;;19.45;9.50;;;;;;;;;;5125606;27;20050;-76
2022/10/31 01:03:14;;;;;;;20.23;9.05;;;;;;;;;;5130654;27;20063;-78
2022/10/31 01:05:40;;;;;;;17.88;9.20;;;;;;;;;;5147744;27;20514;-80
2022/10/31 01:08:07;;;;;;;21.83;9.20;;;;;;;;;;5128379;27;20043;-77
2022/10/31 01:10:33;;;;;;;16.63;8.50;;;;;;;;;;5146101;27;20047;-80
2022/10/31 01:12:59;;;;;;;14.00;8.23;;;;;;;;;;5147617;27;20512;-77
2022/10/31 01:15:26;;;;;;;16.35;8.80;;;;;;;;;;5146543;27;20471;-79
2022/10/31 01:17:52;;;;;;;18.63;8.98;;;;;;;;;;5124093;27;21168;-80
2022/10/31 01:20:19;;;;;;;18.67;9.10;;;;;;;;;;5128306;27;20058;-77
2022/10/31 01:22:45;;;;;;;17.98;9.48;;;;;;;;;;5148615;27;20141;-78
2022/10/31 01:25:11;;;;;;;18.55;9.65;;;;;;;;;;5150229;27;20590;-80
2022/10/31 01:27:38;;;;;;;18.33;9.63;;;;;;;;;;5150326;27;20055;-78
2022/10/31 01:30:05;;;;;;;19.95;9.15;;;;;;;;;;5132230;27;20081;-78
2022/10/31 01:32:31;;;;;;;21.73;9.32;;;;;;;;;;5112679;27;20059;-80
2022/10/31 01:34:57;;;;;;;22.38;9.90;;;;;;;;;;5131148;27;20051;-78
2022/10/31 01:37:24;;;;;;;18.30;8.90;;;;;;;;;;5151276;27;20062;-77
2022/10/31 01:39:50;;;;;;;16.05;8.38;;;;;;;;;;5133019;27;20055;-80
2022/10/31 01:42:19;;;;;;;17.38;8.30;;;;;;;;;;5148873;27;20555;-79
2022/10/31 01:45:05;;;;;;;23.13;9.32;;;;;;;;;;5131453;27;20062;-77
2022/10/31 01:47:44;;;;;;;17.40;8.30;;;;;;;;;;5148847;27;20052;-79
2022/10/31 01:50:13;;;;;;;19.20;9.15;;;;;;;;;;5127627;27;20104;-80
2022/10/31 01:52:44;;;;;;;16.23;9.13;;;;;;;;;;5125410;27;20051;-78
2022/10/31 01:55:19;;;;;;;19.33;9.38;;;;;;;;;;5150562;27;20043;-79
2022/10/31 01:57:47;;;;;;;19.27;9.65;;;;;;;;;;5122718;27;20059;-77
2022/10/31 02:00:14;;;;;;;19.30;9.55;;;;;;;;;;5123021;27;20095;-77
2022/10/31 02:02:41;;;;;;;23.00;10.45;;;;;;;;;;5148850;27;20055;-79
2022/10/31 02:05:10;;;;;;;21.33;9.13;;;;;;;;;;5132178;27;20051;-78
2022/10/31 02:07:39;;;;;;;16.90;8.48;;;;;;;;;;5148928;27;20059;-79
2022/10/31 02:10:06;;;;;;;20.27;9.13;;;;;;;;;;5150621;27;20051;-80
2022/10/31 02:12:32;;;;;;;18.10;9.05;;;;;;;;;;5147836;27;20051;-81
2022/10/31 02:14:59;;;;;;;20.42;9.18;;;;;;;;;;5147409;27;20066;-78
2022/10/31 02:17:26;;;;;;;19.33;9.00;;;;;;;;;;5128241;27;20066;-81
2022/10/31 02:20:13;;;;;;;20.05;8.73;;;;;;;;;;5149293;27;20051;-81
2022/10/31 02:22:58;;;;;;;19.30;9.20;;;;;;;;;;5130963;27;20051;-79
2022/10/31 02:25:37;;;;;;;16.73;8.93;;;;;;;;;;5130865;27;20055;-80
2022/10/31 02:28:09;;;;;;;17.00;8.32;;;;;;;;;;5130158;27;20051;-78
2022/10/31 02:30:45;;;;;;;19.35;8.82;;;;;;;;;;5148739;27;20047;-80
2022/10/31 02:33:31;;;;;;;18.13;8.85;;;;;;;;;;5130647;27;20513;-81
2022/10/31 02:35:58;;;;;;;15.73;8.75;;;;;;;;;;5130373;27;20940;-78
2022/10/31 02:38:24;;;;;;;13.07;8.02;;;;;;;;;;5130014;27;20055;-78
2022/10/31 02:41:04;;;;;;;18.35;8.75;;;;;;;;;;5132040;27;20051;-78
2022/10/31 02:43:36;;;;;;;18.50;8.30;;;;;;;;;;5147935;27;20055;-78
2022/10/31 02:46:06;;;;;;;20.63;8.73;;;;;;;;;;5130260;27;20059;-80
2022/10/31 02:48:35;;;;;;;15.15;8.45;;;;;;;;;;5131374;27;20118;-78
2022/10/31 02:51:02;;;;;;;19.48;8.48;;;;;;;;;;5150013;27;20051;-80
2022/10/31 02:53:34;;;;;;;15.55;8.68;;;;;;;;;;5126749;27;20737;-78
2022/10/31 02:56:06;;;;;;;19.38;8.50;;;;;;;;;;5148956;27;20525;-78
2022/10/31 02:58:36;;;;;;;14.35;7.53;;;;;;;;;;5150766;27;20059;-79
2022/10/31 03:01:20;;;;;;;16.63;8.20;;;;;;;;;;5129370;27;20039;-80
2022/10/31 03:03:47;;;;;;;14.48;8.05;;;;;;;;;;5122552;27;20055;-80
2022/10/31 03:06:17;;;;;;;14.95;8.30;;;;;;;;;;5130417;27;20801;-79
2022/10/31 03:08:50;;;;;;;16.58;7.65;;;;;;;;;;5130587;27;20043;-81
2022/10/31 03:11:18;;;;;;;14.90;8.30;;;;;;;;;;5145739;27;20057;-81
2022/10/31 03:13:56;;;;;;;17.48;8.50;;;;;;;;;;5126046;27;20077;-79
2022/10/31 03:16:22;;;;;;;16.33;8.13;;;;;;;;;;5127365;27;20054;-78
2022/10/31 03:19:01;;;;;;;18.48;8.68;;;;;;;;;;5125615;27;20051;-80
2022/10/31 03:21:43;;;;;;;16.52;8.40;;;;;;;;;;5130402;27;21255;-79
2022/10/31 03:24:10;;;;;;;16.27;8.00;;;;;;;;;;5130988;27;20051;-81
2022/10/31 03:26:38;;;;;;;14.85;7.43;;;;;;;;;;5148971;27;20062;-80
2022/10/31 03:29:06;;;;;;;14.25;8.02;;;;;;;;;;5145397;27;20078;-78
2022/10/31 03:31:35;;;;;;;15.35;7.93;;;;;;;;;;5124874;27;20412;-81
2022/10/31 03:34:02;;;;;;;15.00;8.20;;;;;;;;;;5131455;27;20064;-80
2022/10/31 03:36:30;;;;;;;15.95;8.43;;;;;;;;;;5130929;27;20468;-81
2022/10/31 03:38:56;;;;;;;15.55;7.85;;;;;;;;;;5125333;27;20567;-80
2022/10/31 03:41:27;;;;;;;16.38;8.50;;;;;;;;;;5128574;27;20047;-78
2022/10/31 03:44:04;;;;;;;16.33;8.80;;;;;;;;;;5128949;27;20106;-78
2022/10/31 03:46:31;;;;;;;16.92;8.82;;;;;;;;;;5110599;27;20058;-80
2022/10/31 03:48:58;;;;;;;18.95;9.20;;;;;;;;;;5111890;27;20053;-79
2022/10/31 03:51:24;;;;;;;17.15;8.55;;;;;;;;;;5121863;27;20047;-80
2022/10/31 03:53:51;;;;;;;17.02;8.82;;;;;;;;;;5149051;27;20063;-80
2022/10/31 03:56:33;;;;;;;15.57;8.02;;;;;;;;;;5127111;27;20058;-80
2022/10/31 03:59:00;;;;;;;15.43;7.82;;;;;;;;;;5138051;27;20048;-81
2022/10/31 04:01:28;;;;;;;15.15;7.97;;;;;;;;;;5124524;27;20498;-80
2022/10/31 04:03:55;;;;;;;15.48;8.52;;;;;;;;;;5148142;27;20134;-78
2022/10/31 04:06:22;;;;;;;14.20;7.90;;;;;;;;;;5129844;27;20092;-80
2022/10/31 04:08:51;;;;;;;15.05;8.73;;;;;;;;;;5127346;27;20042;-77
2022/10/31 04:11:19;;;;;;;18.08;8.70;;;;;;;;;;5124594;27;20051;-80
2022/10/31 04:13:46;;;;;;;17.60;9.00;;;;;;;;;;5127465;27;20524;-80
2022/10/31 04:16:14;;;;;;;19.42;9.55;;;;;;;;;;5147808;27;20058;-78
2022/10/31 04:18:42;;;;;;;17.10;8.45;;;;;;;;;;5124052;27;20098;-80
2022/10/31 04:21:09;;;;;;;23.60;10.48;;;;;;;;;;5127537;27;20055;-80
2022/10/31 04:23:35;;;;;;;15.60;8.65;;;;;;;;;;5129367;27;20051;-78
2022/10/31 04:26:02;;;;;;;19.42;8.80;;;;;;;;;;5127476;27;20043;-79
2022/10/31 04:28:28;;;;;;;17.70;8.57;;;;;;;;;;5124593;27;20051;-80
2022/10/31 04:30:54;;;;;;;16.35;7.82;;;;;;;;;;5148058;27;20054;-80
2022/10/31 04:33:21;;;;;;;14.63;7.85;;;;;;;;;;5129146;27;20047;-81
2022/10/31 04:35:47;;;;;;;15.40;8.05;;;;;;;;;;5108020;27;20047;-79
2022/10/31 04:38:14;;;;;;;14.20;7.28;;;;;;;;;;5124216;27;20055;-80
2022/10/31 04:40:40;;;;;;;13.95;7.30;;;;;;;;;;5126664;27;20051;-80
2022/10/31 04:43:06;;;;;;;14.55;7.10;;;;;;;;;;5122575;27;20526;-79
2022/10/31 04:45:33;;;;;;;13.73;8.00;;;;;;;;;;5108234;27;20083;-78
2022/10/31 04:47:59;;;;;;;20.17;9.93;;;;;;;;;;5125071;27;20564;-78
2022/10/31 04:50:26;;;;;;;15.32;8.07;;;;;;;;;;5112367;27;20051;-80
2022/10/31 04:52:52;;;;;;;16.75;8.40;;;;;;;;;;5128299;27;20058;-81
2022/10/31 04:55:18;;;;;;;17.70;8.25;;;;;;;;;;5142870;27;20055;-80
2022/10/31 04:57:46;;;;;;;15.63;7.70;;;;;;;;;;5126184;27;20106;-78
2022/10/31 05:00:13;;;;;;;14.73;7.80;;;;;;;;;;5125381;27;20051;-80
2022/10/31 05:02:58;;;;;;;15.75;8.07;;;;;;;;;;5107664;27;20062;-78
2022/10/31 05:05:26;;;;;;;14.68;7.93;;;;;;;;;;5108024;27;20524;-81
2022/10/31 05:07:52;;;;;;;17.55;7.97;;;;;;;;;;5108674;27;20859;-79
2022/10/31 05:10:20;;;;;;;17.13;7.55;;;;;;;;;;5142062;27;20051;-80
2022/10/31 05:12:47;;;;;;;13.82;7.65;;;;;;;;;;5145014;27;20854;-80
2022/10/31 05:15:14;;;;;;;15.98;7.88;;;;;;;;;;5128135;27;20062;-78
2022/10/31 05:17:41;;;;;;;18.40;8.02;;;;;;;;;;5144187;27;20051;-79
2022/10/31 05:20:07;;;;;;;16.77;8.77;;;;;;;;;;5146406;27;20059;-79
2022/10/31 05:22:34;;;;;;;17.25;8.10;;;;;;;;;;5146305;27;20051;-81
2022/10/31 05:25:00;;;;;;;16.23;7.93;;;;;;;;;;5141943;27;20880;-81
2022/10/31 05:27:26;;;;;;;13.88;7.10;;;;;;;;;;5127431;27;20043;-81
2022/10/31 05:29:52;;;;;;;14.65;7.72;;;;;;;;;;5143193;27;20063;-81
2022/10/31 05:32:19;;;;;;;16.10;7.85;;;;;;;;;;5108695;27;20063;-79
2022/10/31 05:34:45;;;;;;;12.63;6.90;;;;;;;;;;5107178;27;20556;-78
2022/10/31 05:37:11;;;;;;;14.57;6.85;;;;;;;;;;5106835;27;20070;-78
2022/10/31 05:39:38;;;;;;;14.25;7.07;;;;;;;;;;5121476;27;20055;-77
2022/10/31 05:42:04;;;;;;;14.20;7.00;;;;;;;;;;5125762;27;20047;-78
2022/10/31 05:44:30;;;;;;;14.20;6.70;;;;;;;;;;5128013;27;20066;-79
2022/10/31 05:46:57;;;;;;;15.25;6.57;;;;;;;;;;5127894;27;20062;-80
2022/10/31 05:49:23;;;;;;;18.77;7.80;;;;;;;;;;5124302;27;20054;-81
2022/10/31 05:51:49;;;;;;;21.10;8.00;;;;;;;;;;5124412;27;20055;-80
2022/10/31 05:54:16;;;;;;;23.30;8.02;;;;;;;;;;5143541;27;20044;-81
2022/10/31 05:56:43;;;;;;;23.13;8.32;;;;;;;;;;5126983;27;20066;-78
2022/10/31 05:59:09;;;;;;;20.92;8.23;;;;;;;;;;5144083;27;20051;-79
2022/10/31 06:01:35;;;;;;;33.15;8.95;;;;;;;;;;5113654;27;20429;-79
2022/10/31 06:04:02;;;;;;;33.78;8.70;;;;;;;;;;5107707;27;20521;-81
2022/10/31 06:06:28;;;;;;;26.88;8.30;;;;;;;;;;5106920;27;20048;-79
2022/10/31 06:08:54;;;;;;;28.35;8.45;;;;;;;;;;5127190;27;20055;-79
2022/10/31 06:11:20;;;;;;;61.50;8.38;;;;;;;;;;5128385;27;20063;-80
2022/10/31 06:13:47;;;;;;;38.75;8.07;;;;;;;;;;5145716;27;20056;-80
2022/10/31 06:16:13;;;;;;;32.38;7.30;;;;;;;;;;5130485;27;20437;-79
2022/10/31 06:18:39;;;;;;;34.88;7.47;;;;;;;;;;5131151;27;20078;-79
2022/10/31 06:21:05;;;;;;;22.65;6.95;;;;;;;;;;5121539;27;20051;-80
2022/10/31 06:23:32;;;;;;;25.98;7.10;;;;;;;;;;5148445;27;20051;-79
2022/10/31 06:25:58;;;;;;;18.92;7.22;;;;;;;;;;5131136;27;20059;-79
2022/10/31 06:28:24;;;;;;;24.05;8.30;;;;;;;;;;5149836;27;20054;-78
2022/10/31 06:30:50;;;;;;;19.92;8.15;;;;;;;;;;5136862;27;20055;-80
2022/10/31 06:33:17;;;;;;;18.60;7.65;;;;;;;;;;5145751;27;20098;-80
2022/10/31 06:35:47;;;;;;;18.52;8.10;;;;;;;;;;5128458;27;20055;-80
2022/10/31 06:38:14;;;;;;;13.00;7.30;;;;;;;;;;5140416;27;20634;-80
2022/10/31 06:40:40;;;;;;;15.40;7.22;;;;;;;;;;5119948;27;20526;-80
2022/10/31 06:43:06;;;;;;;12.27;6.78;;;;;;;;;;5128167;27;20055;-80
2022/10/31 06:45:33;;;;;;;14.35;6.80;;;;;;;;;;5110737;27;20052;-80
2022/10/31 06:47:59;;;;;;;13.93;6.95;;;;;;;;;;5144627;27;20039;-80
2022/10/31 06:50:42;;;;;;;14.32;6.63;;;;;;;;;;5144992;27;20055;-79
2022/10/31 06:53:08;;;;;;;18.30;7.63;;;;;;;;;;5128684;27;20131;-79
2022/10/31 06:55:40;;;;;;;18.77;7.63;;;;;;;;;;5129645;27;20058;-78
2022/10/31 06:58:08;;;;;;;17.73;7.70;;;;;;;;;;5137898;27;20433;-80
2022/10/31 07:00:35;;;;;;;15.20;8.40;;;;;;;;;;5146663;27;20044;-79
2022/10/31 07:03:03;;;;;;;16.33;7.68;;;;;;;;;;5124308;27;20104;-80
2022/10/31 07:05:30;;;;;;;14.10;7.70;;;;;;;;;;5123221;27;20047;-79
2022/10/31 07:07:58;;;;;;;18.63;9.00;;;;;;;;;;5129148;27;20050;-78
2022/10/31 07:10:26;;;;;;;23.77;9.27;;;;;;;;;;5128587;27;20145;-80
2022/10/31 07:12:56;;;;;;;24.35;9.48;;;;;;;;;;5129502;27;20052;-77
2022/10/31 07:15:27;;;;;;;24.50;10.32;;;;;;;;;;5125585;27;20146;-78
2022/10/31 07:17:58;;;;;;;20.15;10.65;;;;;;;;;;5126947;27;20047;-80
2022/10/31 07:20:39;;;;;;;20.20;9.43;;;;;;;;;;5124015;27;20884;-77
2022/10/31 07:23:11;;;;;;;23.83;12.57;;;;;;;;;;5126143;27;20511;-78
2022/10/31 07:25:43;;;;;;;26.40;13.77;;;;;;;;;;5128833;27;20059;-78
2022/10/31 07:28:19;;;;;;;27.02;14.75;;;;;;;;;;5125800;27;20525;-78
2022/10/31 07:30:52;;;;;;;24.58;12.98;;;;;;;;;;5126618;27;20066;-79
2022/10/31 07:33:25;;;;;;;23.25;11.88;;;;;;;;;;5115869;27;20065;-78
2022/10/31 07:35:58;;;;;;;24.52;11.75;;;;;;;;;;5124712;27;20062;-79
2022/10/31 07:38:42;;;;;;;21.75;12.10;;;;;;;;;;5141629;27;20058;-78
2022/10/31 07:41:10;;;;;;;24.77;11.38;;;;;;;;;;5125108;27;20043;-78
2022/10/31 07:43:43;;;;;;;23.00;12.50;;;;;;;;;;5117971;27;20497;-80
2022/10/31 07:46:21;;;;;;;22.05;11.63;;;;;;;;;;5136927;27;20182;-78
2022/10/31 07:48:56;;;;;;;27.38;12.30;;;;;;;;;;5120876;27;20063;-77
2022/10/31 07:51:29;;;;;;;;;;;;;;;;;;5125654;27;21041;-79
2022/10/31 07:53:58;;;;;;;21.48;11.55;;;;;;;;;;5124822;27;45516;-79
2022/10/31 07:56:27;;;;;;;21.70;12.10;;;;;;;;;;5143861;27;20051;-78
2022/10/31 07:59:06;;;;;;;24.27;12.23;;;;;;;;;;5140209;27;20556;-79
2022/10/31 08:01:39;;;;;;;21.23;11.82;;;;;;;;;;5123399;27;20510;-79
2022/10/31 08:04:12;;;;;;;23.50;12.50;;;;;;;;;;5128940;27;20051;-80
2022/10/31 08:07:02;;;;;;;20.15;11.75;;;;;;;;;;5129364;27;20071;-78
2022/10/31 08:09:41;;;;;;;23.08;11.30;;;;;;;;;;5118142;27;20050;-79
2022/10/31 08:12:15;;;;;;;25.38;13.70;;;;;;;;;;5144759;27;20055;-81
2022/10/31 08:14:42;;;;;;;24.80;13.32;;;;;;;;;;5131919;27;20432;-80
2022/10/31 08:17:10;;;;;;;20.42;11.68;;;;;;;;;;5127276;27;20966;-81
2022/10/31 08:19:37;;;;;;;24.23;13.20;;;;;;;;;;5112445;27;20055;-80
2022/10/31 08:22:12;;;;;;;23.50;13.32;;;;;;;;;;5123967;27;20587;-81
2022/10/31 08:24:39;;;;;;;22.40;12.40;;;;;;;;;;5135847;27;20035;-79
2022/10/31 08:27:13;;;;;;;21.73;12.40;;;;;;;;;;5128491;27;20063;-81
2022/10/31 08:29:43;;;;;;;25.38;12.82;;;;;;;;;;5117271;27;20548;-82
2022/10/31 08:32:15;;;;;;;25.65;13.20;;;;;;;;;;5124414;27;20054;-81
2022/10/31 08:34:48;;;;;;;69.78;23.52;;;;;;;;;;5127839;27;20058;-81
2022/10/31 08:40:14;;;;;;;40.88;16.42;;;;;;;;;;5140276;27;20047;-81
2022/10/31 08:43:02;;;;;;;41.90;17.80;;;;;;;;;;5137779;27;20772;-84
2022/10/31 08:45:41;;;;;;;45.15;22.75;;;;;;;;;;5147186;27;20701;-81
2022/10/31 08:48:13;;;;;;;51.38;24.27;;;;;;;;;;5134555;27;20051;-80
2022/10/31 08:50:49;;;;;;;44.92;23.42;;;;;;;;;;5123184;27;20054;-81
2022/10/31 08:53:18;;;;;;;40.50;22.23;;;;;;;;;;5142827;27;20065;-81
2022/10/31 08:55:46;;;;;;;37.03;19.75;;;;;;;;;;5140684;27;20094;-81
2022/10/31 08:58:26;;;;;;;39.63;20.93;;;;;;;;;;5108108;27;21012;-81
2022/10/31 09:00:56;;;;;;;37.75;19.17;;;;;;;;;;5107979;27;20140;-80
2022/10/31 09:03:25;;;;;;;36.67;19.77;;;;;;;;;;5106700;27;20048;-81
2022/10/31 09:06:08;;;;;;;37.03;19.73;;;;;;;;;;5132801;27;20104;-81
2022/10/31 09:08:36;;;;;;;34.65;17.80;;;;;;;;;;5125066;27;20051;-81
2022/10/31 09:11:07;;;;;;;40.00;18.27;;;;;;;;;;5121388;27;20057;-81
2022/10/31 09:13:45;;;;;;;30.58;15.57;;;;;;;;;;5146354;27;20134;-80
2022/10/31 09:16:19;;;;;;;32.40;17.02;;;;;;;;;;5127201;27;20059;-81
2022/10/31 09:18:55;;;;;;;30.25;16.05;;;;;;;;;;5123909;27;20052;-80
2022/10/31 09:21:31;;;;;;;35.45;16.88;;;;;;;;;;5106798;27;20145;-80
2022/10/31 09:24:06;;;;;;;36.22;20.08;;;;;;;;;;5141917;27;20090;-80
2022/10/31 09:26:38;;;;;;;38.95;20.45;;;;;;;;;;5128196;27;20059;-81
2022/10/31 09:29:12;;;;;;;39.10;20.73;;;;;;;;;;5129548;27;20055;-80
2022/10/31 09:31:48;;;;;;;35.63;20.92;;;;;;;;;;5128872;27;20137;-79
2022/10/31 09:34:19;;;;;;;37.30;21.13;;;;;;;;;;5144550;27;20051;-79
2022/10/31 09:36:52;;;;;;;39.65;21.27;;;;;;;;;;5128130;27;20061;-80
2022/10/31 09:39:25;;;;;;;39.20;21.08;;;;;;;;;;5127017;27;20047;-80
2022/10/31 09:41:55;;;;;;;37.47;20.40;;;;;;;;;;5146574;27;20488;-80
2022/10/31 09:44:29;;;;;;;40.25;20.45;;;;;;;;;;5149380;27;20063;-80
2022/10/31 09:47:17;;;;;;;32.20;18.50;;;;;;;;;;5150366;27;20054;-80
2022/10/31 09:50:02;;;;;;;34.63;21.45;;;;;;;;;;5148357;27;20051;-80
2022/10/31 09:52:31;;;;;;;33.40;19.92;;;;;;;;;;5131154;27;20525;-80
2022/10/31 09:54:58;;;;;;;31.98;18.85;;;;;;;;;;5149780;27;20126;-80
2022/10/31 09:57:33;;;;;;;32.28;20.15;;;;;;;;;;5131919;27;20604;-81
2022/10/31 10:00:23;;;;;;;28.92;18.35;;;;;;;;;;5149789;27;20051;-80
2022/10/31 10:03:06;;;;;;;31.80;17.67;;;;;;;;;;5131085;27;20063;-80
2022/10/31 10:05:42;;;;;;;25.30;14.18;;;;;;;;;;5127710;27;20063;-80
2022/10/31 10:08:22;;;;;;;29.05;14.18;;;;;;;;;;5111283;27;20043;-81
2022/10/31 10:10:56;;;;;;;23.90;14.10;;;;;;;;;;5130146;27;20075;-80
2022/10/31 10:13:38;;;;;;;22.58;13.55;;;;;;;;;;5111475;27;20134;-81
2022/10/31 10:16:32;;;;;;;24.88;14.23;;;;;;;;;;5111108;27;20052;-80
2022/10/31 10:19:05;;;;;;;28.92;14.18;;;;;;;;;;5123913;27;20079;-81
2022/10/31 10:21:44;;;;;;;24.33;13.20;;;;;;;;;;5130341;27;20058;-81
2022/10/31 10:24:37;;;;;;;21.08;12.45;;;;;;;;;;5148579;27;20054;-81
2022/10/31 10:27:20;;;;;;;22.00;11.90;;;;;;;;;;5149534;27;20055;-81
2022/10/31 10:29:58;;;;;;;21.98;12.43;;;;;;;;;;5131319;27;20142;-82
2022/10/31 10:32:36;;;;;;;21.70;11.40;;;;;;;;;;5131613;27;20058;-82
2022/10/31 10:35:31;;;;;;;21.95;12.32;;;;;;;;;;5131335;27;20055;-80
2022/10/31 10:38:10;;;;;;;28.30;12.65;;;;;;;;;;5102468;27;20059;-81
2022/10/31 10:40:40;;;;;;;22.75;11.70;;;;;;;;;;5130803;27;20369;-80
2022/10/31 10:43:27;;;;;;;27.67;13.03;;;;;;;;;;5149218;27;20043;-80
2022/10/31 10:48:45;;;;;;;24.40;12.85;;;;;;;;;;5148518;27;20055;-80
2022/10/31 10:51:35;;;;;;;21.60;12.70;;;;;;;;;;5150590;27;20054;-80
2022/10/31 10:54:44;;;;;;;23.98;12.63;;;;;;;;;;5125924;27;20051;-81
2022/10/31 10:57:28;;;;;;;24.48;12.27;;;;;;;;;;5128148;27;20056;-80
2022/10/31 11:00:16;;;;;;;26.50;11.93;;;;;;;;;;5133925;27;20058;-81
2022/10/31 11:02:46;;;;;;;28.77;13.40;;;;;;;;;;5129726;27;20058;-80
2022/10/31 11:05:34;;;;;;;26.98;13.02;;;;;;;;;;5131860;27;20063;-81
2022/10/31 11:08:07;;;;;;;28.23;13.43;;;;;;;;;;5131030;27;20059;-81
2022/10/31 11:10:37;;;;;;;23.67;12.75;;;;;;;;;;5130842;27;20058;-81
2022/10/31 11:13:17;;;;;;;24.52;11.90;;;;;;;;;;5148035;27;20108;-81
2022/10/31 11:15:52;;;;;;;25.35;13.07;;;;;;;;;;5129579;27;20078;-81
2022/10/31 11:18:24;;;;;;;24.02;12.13;;;;;;;;;;5148743;27;20047;-81
2022/10/31 11:20:58;;;;;;;21.27;12.20;;;;;;;;;;5110936;27;20050;-81
2022/10/31 11:23:31;;;;;;;26.67;11.63;;;;;;;;;;5124846;27;20063;-81
2022/10/31 11:26:00;;;;;;;27.80;12.75;;;;;;;;;;5116760;27;20051;-81
2022/10/31 11:28:32;;;;;;;22.98;12.38;;;;;;;;;;5148486;27;20059;-80
2022/10/31 11:31:13;;;;;;;26.08;12.02;;;;;;;;;;5129013;27;20055;-81
2022/10/31 11:33:44;;;;;;;23.50;11.93;;;;;;;;;;5127216;27;20055;-81
2022/10/31 11:36:25;;;;;;;24.35;13.00;;;;;;;;;;5109367;27;20056;-81
2022/10/31 11:39:01;;;;;;;25.75;14.18;;;;;;;;;;5111089;27;20055;-80
2022/10/31 11:41:43;;;;;;;27.98;13.98;;;;;;;;;;5147748;27;20058;-79
2022/10/31 11:44:21;;;;;;;29.92;13.77;;;;;;;;;;5130536;27;20062;-80
2022/10/31 11:46:58;;;;;;;25.98;13.65;;;;;;;;;;5148464;27;20641;-80
2022/10/31 11:49:32;;;;;;;31.25;14.35;;;;;;;;;;5148425;27;20051;-79
2022/10/31 11:52:04;;;;;;;24.33;14.00;;;;;;;;;;5115935;27;20055;-80
2022/10/31 11:54:56;;;;;;;30.00;14.65;;;;;;;;;;5108900;27;20054;-79
2022/10/31 11:57:29;;;;;;;31.40;14.98;;;;;;;;;;5116687;27;20054;-80
2022/10/31 12:00:00;;;;;;;34.35;17.23;;;;;;;;;;5148376;27;20104;-81
2022/10/31 12:02:30;;;;;;;30.42;16.10;;;;;;;;;;5147445;27;20097;-81
2022/10/31 12:05:16;;;;;;;33.25;15.85;;;;;;;;;;5127934;27;20047;-81
2022/10/31 12:07:44;;;;;;;34.83;16.80;;;;;;;;;;5130341;27;20063;-80
2022/10/31 12:10:26;;;;;;;39.22;17.70;;;;;;;;;;5129800;27;20051;-81
2022/10/31 12:13:08;;;;;;;31.50;16.98;;;;;;;;;;5128979;27;20168;-81
2022/10/31 12:15:46;;;;;;;36.83;17.05;;;;;;;;;;5129814;27;20052;-81
2022/10/31 12:18:46;;;;;;;35.80;18.08;;;;;;;;;;5148170;27;20055;-81
2022/10/31 12:21:35;;;;;;;47.17;18.95;;;;;;;;;;5129245;27;20051;-81
2022/10/31 12:24:06;;;;;;;;;;;;;;;;;;5148747;27;20047;-81
2022/10/31 12:26:59;;;;;;;37.28;16.95;;;;;;;;;;5147017;27;42849;-81
2022/10/31 12:29:44;;;;;;;36.63;17.17;;;;;;;;;;5129467;27;20098;-81
2022/10/31 12:32:22;;;;;;;40.35;18.13;;;;;;;;;;5146287;27;20043;-81
2022/10/31 12:35:01;;;;;;;38.00;18.02;;;;;;;;;;5129692;27;20058;-80
2022/10/31 12:37:50;;;;;;;40.47;18.67;;;;;;;;;;5130684;27;20051;-81
2022/10/31 12:40:24;;;;;;;38.42;18.95;;;;;;;;;;5147969;27;20055;-81
2022/10/31 12:42:55;;;;;;;42.58;19.23;;;;;;;;;;5129056;27;20059;-81
2022/10/31 12:45:54;;;;;;;42.88;19.63;;;;;;;;;;5130812;27;20052;-82
2022/10/31 12:48:49;;;;;;;44.15;19.17;;;;;;;;;;5148151;27;20126;-81
2022/10/31 12:51:23;;;;;;;42.38;19.17;;;;;;;;;;5134990;27;20118;-81
2022/10/31 12:54:03;;;;;;;45.53;19.85;;;;;;;;;;5128789;27;20067;-81
2022/10/31 12:56:42;;;;;;;43.17;19.50;;;;;;;;;;5129886;27;20055;-81
2022/10/31 12:59:09;;;;;;;47.38;19.90;;;;;;;;;;5147172;27;20057;-81
2022/10/31 13:01:47;;;;;;;46.05;19.75;;;;;;;;;;5128474;27;20062;-81
2022/10/31 13:04:24;;;;;;;45.45;20.40;;;;;;;;;;5129539;27;20059;-81
2022/10/31 13:07:00;;;;;;;42.22;19.27;;;;;;;;;;5125501;27;20070;-81
2022/10/31 13:09:43;;;;;;;37.60;18.40;;;;;;;;;;5144541;27;20150;-81
2022/10/31 13:12:15;;;;;;;39.83;19.30;;;;;;;;;;5121339;27;20059;-81
2022/10/31 13:15:01;;;;;;;44.85;20.05;;;;;;;;;;5147018;27;20764;-81
2022/10/31 13:17:34;;;;;;;47.15;20.75;;;;;;;;;;5128419;27;20047;-80
2022/10/31 13:20:08;;;;;;;47.03;20.63;;;;;;;;;;5108812;27;20093;-81
2022/10/31 13:22:36;;;;;;;43.22;20.90;;;;;;;;;;5130131;27;20093;-80
2022/10/31 13:25:12;;;;;;;53.75;20.65;;;;;;;;;;5128361;27;20055;-80
2022/10/31 13:27:51;;;;;;;53.95;21.20;;;;;;;;;;5146859;27;20779;-80
2022/10/31 13:30:20;;;;;;;41.08;19.35;;;;;;;;;;5128179;27;20051;-78
2022/10/31 13:33:11;;;;;;;38.70;19.17;;;;;;;;;;5128936;27;20055;-80
2022/10/31 13:35:47;;;;;;;42.00;19.00;;;;;;;;;;5146043;27;20162;-80
2022/10/31 13:38:20;;;;;;;36.00;18.48;;;;;;;;;;5128438;27;20051;-80
2022/10/31 13:41:02;;;;;;;38.78;17.80;;;;;;;;;;5150293;27;20113;-80
2022/10/31 13:43:59;;;;;;;37.53;17.38;;;;;;;;;;5107480;27;20047;-79
2022/10/31 13:46:41;;;;;;;34.55;17.13;;;;;;;;;;5126360;27;20055;-80
2022/10/31 13:49:34;;;;;;;39.20;18.20;;;;;;;;;;5121094;27;20043;-81
2022/10/31 13:52:13;;;;;;;42.88;18.48;;;;;;;;;;5118323;27;20059;-81
2022/10/31 13:54:47;;;;;;;39.90;18.05;;;;;;;;;;5144218;27;20043;-81
2022/10/31 13:57:24;;;;;;;40.15;18.38;;;;;;;;;;5125746;27;20056;-81
2022/10/31 14:00:00;;;;;;;38.53;17.58;;;;;;;;;;5122139;27;20083;-81
2022/10/31 14:02:33;;;;;;;40.88;18.88;;;;;;;;;;5146662;27;20098;-81
2022/10/31 14:05:22;;;;;;;38.13;17.50;;;;;;;;;;5128628;27;20051;-81
2022/10/31 14:07:49;;;;;;;34.17;17.35;;;;;;;;;;5126514;27;20056;-81
2022/10/31 14:10:26;;;;;;;35.45;18.35;;;;;;;;;;5113667;27;20036;-81
2022/10/31 14:13:05;;;;;;;40.08;18.95;;;;;;;;;;5128480;27;20145;-81
2022/10/31 14:15:40;;;;;;;37.60;18.00;;;;;;;;;;5128801;27;20055;-81
2022/10/31 14:18:21;;;;;;;37.08;17.35;;;;;;;;;;5146877;27;20172;-81
2022/10/31 14:20:51;;;;;;;38.50;18.27;;;;;;;;;;5134620;27;20057;-81
2022/10/31 14:23:40;;;;;;;42.42;19.33;;;;;;;;;;5155479;27;20055;-81
2022/10/31 14:26:35;;;;;;;41.03;19.10;;;;;;;;;;5152917;27;20038;-82
2022/10/31 14:29:33;;;;;;;36.95;18.95;;;;;;;;;;5132868;27;20058;-80
2022/10/31 14:32:18;;;;;;;38.47;19.17;;;;;;;;;;5133997;27;20095;-80
2022/10/31 14:34:54;;;;;;;40.08;19.92;;;;;;;;;;5132187;27;20063;-81
2022/10/31 14:37:45;;;;;;;39.47;18.27;;;;;;;;;;5119853;27;20135;-81
2022/10/31 14:40:21;;;;;;;39.88;18.17;;;;;;;;;;5111726;27;20052;-81
2022/10/31 14:42:56;;;;;;;39.88;19.23;;;;;;;;;;5111303;27;20051;-80
2022/10/31 14:45:42;;;;;;;41.13;18.45;;;;;;;;;;5109895;27;20593;-80
2022/10/31 14:48:34;;;;;;;51.22;19.42;;;;;;;;;;5111737;27;20083;-80
2022/10/31 14:51:10;;;;;;;39.95;18.17;;;;;;;;;;5115971;27;20051;-80
2022/10/31 14:53:52;;;;;;;37.15;17.73;;;;;;;;;;5150305;27;20066;-80
2022/10/31 14:56:47;;;;;;;35.50;17.35;;;;;;;;;;5131177;27;20055;-80
2022/10/31 14:59:26;;;;;;;40.83;17.75;;;;;;;;;;5149476;27;20332;-81
2022/10/31 15:01:58;;;;;;;34.50;17.10;;;;;;;;;;5149143;27;20052;-79
2022/10/31 15:04:32;;;;;;;33.03;16.55;;;;;;;;;;5130999;27;20059;-80